sensor_id;sensor_type;location;lat;lon;timestamp;P1;durP1;ratioP1;P2;durP2;ratioP2
54679;SDS011;40578;53.178;5.846;2022-12-05T00:01:31;32.93;;;18.27;;
54679;SDS011;40578;53.178;5.846;2022-12-05T00:04:00;34.90;;;19.80;;
54679;SDS011;40578;53.178;5.846;2022-12-05T00:06:28;31.00;;;18.52;;
54679;SDS011;40578;53.178;5.846;2022-12-05T00:08:57;33.22;;;18.38;;
54679;SDS011;40578;53.178;5.846;2022-12-05T00:11:24;32.92;;;18.38;;
54679;SDS011;40578;53.178;5.846;2022-12-05T00:13:53;35.90;;;19.02;;
54679;SDS011;40578;53.178;5.846;2022-12-05T00:16:22;37.25;;;19.27;;
54679;SDS011;40578;53.178;5.846;2022-12-05T00:18:50;32.85;;;18.40;;
54679;SDS011;40578;53.178;5.846;2022-12-05T00:21:18;33.13;;;18.58;;
54679;SDS011;40578;53.178;5.846;2022-12-05T00:23:46;33.67;;;19.15;;
54679;SDS011;40578;53.178;5.846;2022-12-05T00:26:13;31.05;;;18.45;;
54679;SDS011;40578;53.178;5.846;2022-12-05T00:28:39;32.33;;;18.67;;
54679;SDS011;40578;53.178;5.846;2022-12-05T00:31:05;33.72;;;18.20;;
54679;SDS011;40578;53.178;5.846;2022-12-05T00:33:33;34.90;;;18.70;;
54679;SDS011;40578;53.178;5.846;2022-12-05T00:36:09;29.98;;;17.27;;
54679;SDS011;40578;53.178;5.846;2022-12-05T00:38:37;30.88;;;17.48;;
54679;SDS011;40578;53.178;5.846;2022-12-05T00:41:08;31.08;;;17.58;;
54679;SDS011;40578;53.178;5.846;2022-12-05T00:43:36;29.02;;;17.33;;
54679;SDS011;40578;53.178;5.846;2022-12-05T00:46:03;27.25;;;15.63;;
54679;SDS011;40578;53.178;5.846;2022-12-05T00:48:30;32.20;;;17.35;;
54679;SDS011;40578;53.178;5.846;2022-12-05T00:51:00;28.85;;;16.55;;
54679;SDS011;40578;53.178;5.846;2022-12-05T00:53:29;29.52;;;17.58;;
54679;SDS011;40578;53.178;5.846;2022-12-05T00:55:55;28.70;;;16.23;;
54679;SDS011;40578;53.178;5.846;2022-12-05T00:58:22;31.55;;;17.52;;
54679;SDS011;40578;53.178;5.846;2022-12-05T01:00:47;25.83;;;15.05;;
54679;SDS011;40578;53.178;5.846;2022-12-05T01:03:13;29.03;;;17.20;;
54679;SDS011;40578;53.178;5.846;2022-12-05T01:05:39;27.20;;;15.50;;
54679;SDS011;40578;53.178;5.846;2022-12-05T01:08:04;35.60;;;19.53;;
54679;SDS011;40578;53.178;5.846;2022-12-05T01:10:30;30.93;;;17.93;;
54679;SDS011;40578;53.178;5.846;2022-12-05T01:12:55;35.57;;;18.53;;
54679;SDS011;40578;53.178;5.846;2022-12-05T01:15:21;34.20;;;18.97;;
54679;SDS011;40578;53.178;5.846;2022-12-05T01:17:47;34.03;;;18.53;;
54679;SDS011;40578;53.178;5.846;2022-12-05T01:20:12;35.23;;;19.63;;
54679;SDS011;40578;53.178;5.846;2022-12-05T01:22:38;30.57;;;18.47;;
54679;SDS011;40578;53.178;5.846;2022-12-05T01:25:03;34.40;;;19.27;;
54679;SDS011;40578;53.178;5.846;2022-12-05T01:27:29;32.50;;;18.60;;
54679;SDS011;40578;53.178;5.846;2022-12-05T01:29:56;32.17;;;17.83;;
54679;SDS011;40578;53.178;5.846;2022-12-05T01:32:22;31.90;;;17.83;;
54679;SDS011;40578;53.178;5.846;2022-12-05T01:34:47;33.73;;;18.50;;
54679;SDS011;40578;53.178;5.846;2022-12-05T01:37:13;30.57;;;17.67;;
54679;SDS011;40578;53.178;5.846;2022-12-05T01:39:39;34.13;;;18.07;;
54679;SDS011;40578;53.178;5.846;2022-12-05T01:42:04;34.47;;;18.43;;
54679;SDS011;40578;53.178;5.846;2022-12-05T01:46:57;32.08;;;17.95;;
54679;SDS011;40578;53.178;5.846;2022-12-05T01:49:32;30.73;;;17.63;;
54679;SDS011;40578;53.178;5.846;2022-12-05T01:52:09;34.88;;;18.08;;
54679;SDS011;40578;53.178;5.846;2022-12-05T01:54:38;34.40;;;18.05;;
54679;SDS011;40578;53.178;5.846;2022-12-05T01:57:07;26.55;;;16.48;;
54679;SDS011;40578;53.178;5.846;2022-12-05T01:59:36;29.58;;;18.48;;
54679;SDS011;40578;53.178;5.846;2022-12-05T02:02:05;34.47;;;17.85;;
54679;SDS011;40578;53.178;5.846;2022-12-05T02:04:33;32.72;;;17.63;;
54679;SDS011;40578;53.178;5.846;2022-12-05T02:07:02;31.08;;;18.13;;
54679;SDS011;40578;53.178;5.846;2022-12-05T02:09:28;32.77;;;17.80;;
54679;SDS011;40578;53.178;5.846;2022-12-05T02:11:55;29.47;;;15.33;;
54679;SDS011;40578;53.178;5.846;2022-12-05T02:30:23;24.60;;;14.20;;
54679;SDS011;40578;53.178;5.846;2022-12-05T02:33:07;24.75;;;13.88;;
54679;SDS011;40578;53.178;5.846;2022-12-05T02:44:09;19.17;;;11.65;;
54679;SDS011;40578;53.178;5.846;2022-12-05T02:46:39;20.40;;;11.52;;
54679;SDS011;40578;53.178;5.846;2022-12-05T02:51:40;19.35;;;10.68;;
54679;SDS011;40578;53.178;5.846;2022-12-05T02:54:11;22.48;;;10.73;;
54679;SDS011;40578;53.178;5.846;2022-12-05T02:56:39;12.73;;;8.75;;
54679;SDS011;40578;53.178;5.846;2022-12-05T02:59:10;19.30;;;10.43;;
54679;SDS011;40578;53.178;5.846;2022-12-05T03:01:35;14.67;;;9.53;;
54679;SDS011;40578;53.178;5.846;2022-12-05T03:04:02;17.80;;;8.63;;
54679;SDS011;40578;53.178;5.846;2022-12-05T03:06:40;16.00;;;9.35;;
54679;SDS011;40578;53.178;5.846;2022-12-05T03:09:12;17.95;;;9.02;;
54679;SDS011;40578;53.178;5.846;2022-12-05T03:11:48;13.75;;;8.43;;
54679;SDS011;40578;53.178;5.846;2022-12-05T03:14:37;14.13;;;9.15;;
54679;SDS011;40578;53.178;5.846;2022-12-05T03:17:09;16.48;;;7.82;;
54679;SDS011;40578;53.178;5.846;2022-12-05T03:22:26;17.10;;;8.38;;
54679;SDS011;40578;53.178;5.846;2022-12-05T03:25:05;15.95;;;9.50;;
54679;SDS011;40578;53.178;5.846;2022-12-05T03:32:40;13.60;;;7.93;;
54679;SDS011;40578;53.178;5.846;2022-12-05T03:35:42;13.82;;;8.25;;
54679;SDS011;40578;53.178;5.846;2022-12-05T03:38:24;12.60;;;7.07;;
54679;SDS011;40578;53.178;5.846;2022-12-05T03:43:51;13.18;;;7.95;;
54679;SDS011;40578;53.178;5.846;2022-12-05T03:46:30;16.33;;;7.80;;
54679;SDS011;40578;53.178;5.846;2022-12-05T03:51:58;17.38;;;8.07;;
54679;SDS011;40578;53.178;5.846;2022-12-05T03:54:44;13.07;;;7.45;;
54679;SDS011;40578;53.178;5.846;2022-12-05T03:57:27;14.63;;;7.72;;
54679;SDS011;40578;53.178;5.846;2022-12-05T04:00:00;15.30;;;8.30;;
54679;SDS011;40578;53.178;5.846;2022-12-05T04:05:22;15.18;;;8.50;;
54679;SDS011;40578;53.178;5.846;2022-12-05T04:07:54;17.95;;;8.23;;
54679;SDS011;40578;53.178;5.846;2022-12-05T04:10:30;14.43;;;8.10;;
54679;SDS011;40578;53.178;5.846;2022-12-05T04:13:12;16.05;;;8.30;;
54679;SDS011;40578;53.178;5.846;2022-12-05T04:15:54;12.88;;;7.88;;
54679;SDS011;40578;53.178;5.846;2022-12-05T04:18:43;19.20;;;9.20;;
54679;SDS011;40578;53.178;5.846;2022-12-05T04:21:33;14.13;;;8.23;;
54679;SDS011;40578;53.178;5.846;2022-12-05T04:27:00;17.77;;;9.25;;
54679;SDS011;40578;53.178;5.846;2022-12-05T04:29:35;19.90;;;9.23;;
54679;SDS011;40578;53.178;5.846;2022-12-05T04:32:08;17.17;;;9.50;;
54679;SDS011;40578;53.178;5.846;2022-12-05T04:34:37;17.77;;;9.95;;
54679;SDS011;40578;53.178;5.846;2022-12-05T04:37:06;17.63;;;9.68;;
54679;SDS011;40578;53.178;5.846;2022-12-05T04:39:39;18.23;;;10.15;;
54679;SDS011;40578;53.178;5.846;2022-12-05T04:42:13;17.33;;;9.95;;
54679;SDS011;40578;53.178;5.846;2022-12-05T04:47:30;20.17;;;10.25;;
54679;SDS011;40578;53.178;5.846;2022-12-05T04:50:00;22.90;;;10.55;;
54679;SDS011;40578;53.178;5.846;2022-12-05T04:52:28;17.27;;;10.38;;
54679;SDS011;40578;53.178;5.846;2022-12-05T04:55:00;20.65;;;10.23;;
54679;SDS011;40578;53.178;5.846;2022-12-05T04:57:31;16.55;;;9.65;;
54679;SDS011;40578;53.178;5.846;2022-12-05T05:00:02;18.42;;;9.75;;
54679;SDS011;40578;53.178;5.846;2022-12-05T05:02:31;19.17;;;9.73;;
54679;SDS011;40578;53.178;5.846;2022-12-05T05:05:09;17.00;;;9.98;;
54679;SDS011;40578;53.178;5.846;2022-12-05T05:07:43;24.73;;;10.70;;
54679;SDS011;40578;53.178;5.846;2022-12-05T05:10:12;16.77;;;9.02;;
54679;SDS011;40578;53.178;5.846;2022-12-05T05:12:41;24.75;;;9.82;;
54679;SDS011;40578;53.178;5.846;2022-12-05T05:15:07;19.17;;;9.93;;
54679;SDS011;40578;53.178;5.846;2022-12-05T05:17:33;19.57;;;10.83;;
54679;SDS011;40578;53.178;5.846;2022-12-05T05:19:59;21.33;;;10.70;;
54679;SDS011;40578;53.178;5.846;2022-12-05T05:22:45;20.38;;;11.00;;
54679;SDS011;40578;53.178;5.846;2022-12-05T05:25:12;20.95;;;10.93;;
54679;SDS011;40578;53.178;5.846;2022-12-05T05:27:38;21.40;;;9.60;;
54679;SDS011;40578;53.178;5.846;2022-12-05T05:30:04;18.97;;;10.60;;
54679;SDS011;40578;53.178;5.846;2022-12-05T05:32:31;17.63;;;9.90;;
54679;SDS011;40578;53.178;5.846;2022-12-05T05:34:57;23.40;;;10.32;;
54679;SDS011;40578;53.178;5.846;2022-12-05T05:37:23;17.33;;;10.30;;
54679;SDS011;40578;53.178;5.846;2022-12-05T05:39:48;18.37;;;10.27;;
54679;SDS011;40578;53.178;5.846;2022-12-05T05:42:15;17.87;;;10.40;;
54679;SDS011;40578;53.178;5.846;2022-12-05T05:44:40;21.77;;;11.25;;
54679;SDS011;40578;53.178;5.846;2022-12-05T05:47:06;22.77;;;10.77;;
54679;SDS011;40578;53.178;5.846;2022-12-05T05:49:32;20.57;;;11.10;;
54679;SDS011;40578;53.178;5.846;2022-12-05T05:51:57;21.23;;;10.70;;
54679;SDS011;40578;53.178;5.846;2022-12-05T05:54:23;18.53;;;10.23;;
54679;SDS011;40578;53.178;5.846;2022-12-05T05:56:48;20.67;;;9.47;;
54679;SDS011;40578;53.178;5.846;2022-12-05T05:59:14;18.50;;;9.17;;
54679;SDS011;40578;53.178;5.846;2022-12-05T06:01:39;18.27;;;9.33;;
54679;SDS011;40578;53.178;5.846;2022-12-05T06:04:05;16.70;;;10.03;;
54679;SDS011;40578;53.178;5.846;2022-12-05T06:06:31;17.17;;;8.55;;
54679;SDS011;40578;53.178;5.846;2022-12-05T06:08:57;17.23;;;9.20;;
54679;SDS011;40578;53.178;5.846;2022-12-05T06:11:24;14.80;;;9.17;;
54679;SDS011;40578;53.178;5.846;2022-12-05T06:13:50;16.05;;;9.57;;
54679;SDS011;40578;53.178;5.846;2022-12-05T06:16:17;17.83;;;9.60;;
54679;SDS011;40578;53.178;5.846;2022-12-05T06:18:45;18.30;;;8.73;;
54679;SDS011;40578;53.178;5.846;2022-12-05T06:21:11;18.33;;;9.57;;
54679;SDS011;40578;53.178;5.846;2022-12-05T06:23:37;17.50;;;9.00;;
54679;SDS011;40578;53.178;5.846;2022-12-05T06:26:03;17.77;;;9.02;;
54679;SDS011;40578;53.178;5.846;2022-12-05T06:28:30;16.73;;;9.02;;
54679;SDS011;40578;53.178;5.846;2022-12-05T06:30:57;16.73;;;9.43;;
54679;SDS011;40578;53.178;5.846;2022-12-05T06:33:22;14.85;;;9.02;;
54679;SDS011;40578;53.178;5.846;2022-12-05T06:35:48;17.00;;;8.50;;
54679;SDS011;40578;53.178;5.846;2022-12-05T06:38:24;14.43;;;8.52;;
54679;SDS011;40578;53.178;5.846;2022-12-05T06:40:50;18.17;;;9.17;;
54679;SDS011;40578;53.178;5.846;2022-12-05T06:43:16;16.13;;;9.13;;
54679;SDS011;40578;53.178;5.846;2022-12-05T06:45:41;18.80;;;8.50;;
54679;SDS011;40578;53.178;5.846;2022-12-05T06:48:07;14.37;;;7.87;;
54679;SDS011;40578;53.178;5.846;2022-12-05T06:50:32;14.43;;;8.30;;
54679;SDS011;40578;53.178;5.846;2022-12-05T06:52:58;17.10;;;9.00;;
54679;SDS011;40578;53.178;5.846;2022-12-05T06:55:24;16.17;;;8.37;;
54679;SDS011;40578;53.178;5.846;2022-12-05T06:57:49;14.93;;;8.00;;
54679;SDS011;40578;53.178;5.846;2022-12-05T07:00:15;16.37;;;8.77;;
54679;SDS011;40578;53.178;5.846;2022-12-05T07:02:59;16.98;;;9.45;;
54679;SDS011;40578;53.178;5.846;2022-12-05T07:05:26;18.37;;;9.50;;
54679;SDS011;40578;53.178;5.846;2022-12-05T07:07:51;19.98;;;9.30;;
54679;SDS011;40578;53.178;5.846;2022-12-05T07:10:17;20.23;;;8.37;;
54679;SDS011;40578;53.178;5.846;2022-12-05T07:12:43;17.73;;;8.97;;
54679;SDS011;40578;53.178;5.846;2022-12-05T07:15:08;16.30;;;7.67;;
54679;SDS011;40578;53.178;5.846;2022-12-05T07:17:35;19.83;;;8.97;;
54679;SDS011;40578;53.178;5.846;2022-12-05T07:20:03;15.60;;;8.48;;
54679;SDS011;40578;53.178;5.846;2022-12-05T07:22:30;20.73;;;9.50;;
54679;SDS011;40578;53.178;5.846;2022-12-05T07:24:55;16.87;;;9.17;;
54679;SDS011;40578;53.178;5.846;2022-12-05T07:27:22;18.97;;;8.53;;
54679;SDS011;40578;53.178;5.846;2022-12-05T07:29:48;15.80;;;8.32;;
54679;SDS011;40578;53.178;5.846;2022-12-05T07:32:13;17.57;;;8.43;;
54679;SDS011;40578;53.178;5.846;2022-12-05T07:34:39;19.63;;;8.70;;
54679;SDS011;40578;53.178;5.846;2022-12-05T07:37:06;19.75;;;8.38;;
54679;SDS011;40578;53.178;5.846;2022-12-05T07:39:32;16.03;;;8.33;;
54679;SDS011;40578;53.178;5.846;2022-12-05T07:41:57;17.07;;;7.97;;
54679;SDS011;40578;53.178;5.846;2022-12-05T07:44:23;19.77;;;8.10;;
54679;SDS011;40578;53.178;5.846;2022-12-05T07:46:48;22.47;;;8.43;;
54679;SDS011;40578;53.178;5.846;2022-12-05T07:49:14;19.67;;;8.40;;
54679;SDS011;40578;53.178;5.846;2022-12-05T07:51:40;15.83;;;6.27;;
54679;SDS011;40578;53.178;5.846;2022-12-05T07:54:05;17.40;;;7.37;;
54679;SDS011;40578;53.178;5.846;2022-12-05T07:56:31;17.77;;;7.00;;
54679;SDS011;40578;53.178;5.846;2022-12-05T07:58:57;14.03;;;7.23;;
54679;SDS011;40578;53.178;5.846;2022-12-05T08:01:23;14.57;;;7.23;;
54679;SDS011;40578;53.178;5.846;2022-12-05T08:03:54;12.82;;;7.00;;
54679;SDS011;40578;53.178;5.846;2022-12-05T08:06:23;16.08;;;7.78;;
54679;SDS011;40578;53.178;5.846;2022-12-05T08:08:50;16.15;;;7.93;;
54679;SDS011;40578;53.178;5.846;2022-12-05T08:11:27;17.27;;;8.02;;
54679;SDS011;40578;53.178;5.846;2022-12-05T08:13:55;15.35;;;8.30;;
54679;SDS011;40578;53.178;5.846;2022-12-05T08:16:23;18.60;;;8.63;;
54679;SDS011;40578;53.178;5.846;2022-12-05T08:18:54;15.60;;;7.53;;
54679;SDS011;40578;53.178;5.846;2022-12-05T08:21:20;18.55;;;7.60;;
54679;SDS011;40578;53.178;5.846;2022-12-05T08:23:46;21.00;;;8.10;;
54679;SDS011;40578;53.178;5.846;2022-12-05T08:26:13;16.58;;;8.38;;
54679;SDS011;40578;53.178;5.846;2022-12-05T08:28:45;16.77;;;7.70;;
54679;SDS011;40578;53.178;5.846;2022-12-05T08:31:15;17.73;;;7.32;;
54679;SDS011;40578;53.178;5.846;2022-12-05T08:33:42;15.43;;;7.65;;
54679;SDS011;40578;53.178;5.846;2022-12-05T08:36:08;14.93;;;7.73;;
54679;SDS011;40578;53.178;5.846;2022-12-05T08:38:39;18.60;;;7.78;;
54679;SDS011;40578;53.178;5.846;2022-12-05T08:41:06;16.63;;;8.07;;
54679;SDS011;40578;53.178;5.846;2022-12-05T08:43:33;16.23;;;7.82;;
54679;SDS011;40578;53.178;5.846;2022-12-05T08:45:59;14.63;;;7.93;;
54679;SDS011;40578;53.178;5.846;2022-12-05T08:48:26;17.38;;;7.72;;
54679;SDS011;40578;53.178;5.846;2022-12-05T08:50:53;15.02;;;7.97;;
54679;SDS011;40578;53.178;5.846;2022-12-05T08:53:19;15.05;;;7.68;;
54679;SDS011;40578;53.178;5.846;2022-12-05T08:55:45;14.05;;;6.38;;
54679;SDS011;40578;53.178;5.846;2022-12-05T08:58:11;13.00;;;6.43;;
54679;SDS011;40578;53.178;5.846;2022-12-05T09:00:38;15.20;;;7.68;;
54679;SDS011;40578;53.178;5.846;2022-12-05T09:05:30;18.80;;;7.38;;
54679;SDS011;40578;53.178;5.846;2022-12-05T09:07:56;17.03;;;7.20;;
54679;SDS011;40578;53.178;5.846;2022-12-05T09:10:23;13.32;;;7.30;;
54679;SDS011;40578;53.178;5.846;2022-12-05T09:12:49;15.73;;;8.07;;
54679;SDS011;40578;53.178;5.846;2022-12-05T09:15:15;18.27;;;6.90;;
54679;SDS011;40578;53.178;5.846;2022-12-05T09:17:42;13.60;;;7.00;;
54679;SDS011;40578;53.178;5.846;2022-12-05T09:20:08;16.10;;;7.10;;
54679;SDS011;40578;53.178;5.846;2022-12-05T09:22:36;18.17;;;6.93;;
54679;SDS011;40578;53.178;5.846;2022-12-05T09:25:02;17.33;;;8.00;;
54679;SDS011;40578;53.178;5.846;2022-12-05T09:27:28;14.32;;;6.97;;
54679;SDS011;40578;53.178;5.846;2022-12-05T09:29:55;16.10;;;7.80;;
54679;SDS011;40578;53.178;5.846;2022-12-05T09:32:20;16.15;;;7.53;;
54679;SDS011;40578;53.178;5.846;2022-12-05T09:34:46;16.83;;;6.53;;
54679;SDS011;40578;53.178;5.846;2022-12-05T09:37:11;16.30;;;7.77;;
54679;SDS011;40578;53.178;5.846;2022-12-05T09:39:38;15.23;;;7.33;;
54679;SDS011;40578;53.178;5.846;2022-12-05T09:50:46;18.00;;;7.85;;
54679;SDS011;40578;53.178;5.846;2022-12-05T09:53:27;16.77;;;8.23;;
54679;SDS011;40578;53.178;5.846;2022-12-05T10:03:46;18.20;;;8.77;;
54679;SDS011;40578;53.178;5.846;2022-12-05T10:06:23;19.10;;;7.72;;
54679;SDS011;40578;53.178;5.846;2022-12-05T10:12:33;18.88;;;9.00;;
54679;SDS011;40578;53.178;5.846;2022-12-05T10:14:56;18.15;;;8.43;;
54679;SDS011;40578;53.178;5.846;2022-12-05T10:17:36;17.25;;;8.65;;
54679;SDS011;40578;53.178;5.846;2022-12-05T10:20:09;18.83;;;8.55;;
54679;SDS011;40578;53.178;5.846;2022-12-05T10:22:52;21.02;;;8.43;;
54679;SDS011;40578;53.178;5.846;2022-12-05T10:25:26;19.70;;;8.20;;
54679;SDS011;40578;53.178;5.846;2022-12-05T10:27:56;16.88;;;8.73;;
54679;SDS011;40578;53.178;5.846;2022-12-05T10:30:26;13.48;;;7.50;;
54679;SDS011;40578;53.178;5.846;2022-12-05T10:32:56;17.73;;;8.75;;
54679;SDS011;40578;53.178;5.846;2022-12-05T10:35:26;13.27;;;7.65;;
54679;SDS011;40578;53.178;5.846;2022-12-05T10:37:58;19.73;;;8.68;;
54679;SDS011;40578;53.178;5.846;2022-12-05T10:40:33;18.42;;;8.23;;
54679;SDS011;40578;53.178;5.846;2022-12-05T10:43:03;15.52;;;7.55;;
54679;SDS011;40578;53.178;5.846;2022-12-05T10:45:40;17.30;;;7.97;;
54679;SDS011;40578;53.178;5.846;2022-12-05T10:48:08;15.18;;;7.68;;
54679;SDS011;40578;53.178;5.846;2022-12-05T10:50:37;14.40;;;8.30;;
54679;SDS011;40578;53.178;5.846;2022-12-05T10:53:04;18.60;;;7.60;;
54679;SDS011;40578;53.178;5.846;2022-12-05T10:55:40;18.02;;;8.05;;
54679;SDS011;40578;53.178;5.846;2022-12-05T11:00:38;19.40;;;8.40;;
54679;SDS011;40578;53.178;5.846;2022-12-05T11:03:20;22.95;;;8.90;;
54679;SDS011;40578;53.178;5.846;2022-12-05T11:06:26;19.20;;;8.32;;
54679;SDS011;40578;53.178;5.846;2022-12-05T11:08:57;15.05;;;8.15;;
54679;SDS011;40578;53.178;5.846;2022-12-05T11:11:29;19.13;;;8.07;;
54679;SDS011;40578;53.178;5.846;2022-12-05T11:16:35;17.63;;;8.02;;
54679;SDS011;40578;53.178;5.846;2022-12-05T11:24:27;20.05;;;7.90;;
54679;SDS011;40578;53.178;5.846;2022-12-05T11:26:58;21.02;;;8.07;;
54679;SDS011;40578;53.178;5.846;2022-12-05T11:29:46;19.67;;;8.05;;
54679;SDS011;40578;53.178;5.846;2022-12-05T11:32:20;18.08;;;7.82;;
54679;SDS011;40578;53.178;5.846;2022-12-05T11:35:23;16.38;;;7.32;;
54679;SDS011;40578;53.178;5.846;2022-12-05T11:37:51;15.70;;;8.60;;
54679;SDS011;40578;53.178;5.846;2022-12-05T11:58:28;22.05;;;8.90;;
54679;SDS011;40578;53.178;5.846;2022-12-05T12:14:49;19.23;;;8.60;;
54679;SDS011;40578;53.178;5.846;2022-12-05T12:33:33;17.10;;;7.25;;
54679;SDS011;40578;53.178;5.846;2022-12-05T12:36:17;14.15;;;7.22;;
54679;SDS011;40578;53.178;5.846;2022-12-05T12:47:09;16.70;;;7.00;;
54679;SDS011;40578;53.178;5.846;2022-12-05T12:50:20;19.65;;;7.90;;
54679;SDS011;40578;53.178;5.846;2022-12-05T12:53:01;17.23;;;7.80;;
54679;SDS011;40578;53.178;5.846;2022-12-05T13:01:16;15.57;;;6.05;;
54679;SDS011;40578;53.178;5.846;2022-12-05T13:04:43;19.05;;;7.50;;
54679;SDS011;40578;53.178;5.846;2022-12-05T13:07:11;17.17;;;7.90;;
54679;SDS011;40578;53.178;5.846;2022-12-05T13:09:48;15.45;;;6.93;;
54679;SDS011;40578;53.178;5.846;2022-12-05T13:12:23;16.45;;;5.78;;
54679;SDS011;40578;53.178;5.846;2022-12-05T13:14:57;14.90;;;6.18;;
54679;SDS011;40578;53.178;5.846;2022-12-05T13:17:25;12.10;;;6.03;;
54679;SDS011;40578;53.178;5.846;2022-12-05T13:19:55;15.48;;;6.28;;
54679;SDS011;40578;53.178;5.846;2022-12-05T13:22:22;11.07;;;5.70;;
54679;SDS011;40578;53.178;5.846;2022-12-05T13:24:50;11.85;;;5.75;;
54679;SDS011;40578;53.178;5.846;2022-12-05T13:27:22;12.00;;;5.63;;
54679;SDS011;40578;53.178;5.846;2022-12-05T13:38:15;12.45;;;5.15;;
54679;SDS011;40578;53.178;5.846;2022-12-05T13:41:06;10.27;;;4.57;;
54679;SDS011;40578;53.178;5.846;2022-12-05T13:43:51;11.30;;;5.60;;
54679;SDS011;40578;53.178;5.846;2022-12-05T13:46:30;9.27;;;4.93;;
54679;SDS011;40578;53.178;5.846;2022-12-05T13:49:13;8.73;;;4.88;;
54679;SDS011;40578;53.178;5.846;2022-12-05T13:51:42;8.85;;;4.45;;
54679;SDS011;40578;53.178;5.846;2022-12-05T13:56:51;8.02;;;4.57;;
54679;SDS011;40578;53.178;5.846;2022-12-05T14:07:44;7.82;;;4.30;;
54679;SDS011;40578;53.178;5.846;2022-12-05T14:10:11;8.27;;;3.97;;
54679;SDS011;40578;53.178;5.846;2022-12-05T14:15:27;10.38;;;3.72;;
54679;SDS011;40578;53.178;5.846;2022-12-05T14:20:45;8.25;;;4.18;;
54679;SDS011;40578;53.178;5.846;2022-12-05T14:28:47;12.10;;;4.15;;
54679;SDS011;40578;53.178;5.846;2022-12-05T14:34:26;11.45;;;4.25;;
54679;SDS011;40578;53.178;5.846;2022-12-05T14:37:01;9.82;;;4.85;;
54679;SDS011;40578;53.178;5.846;2022-12-05T14:45:01;10.05;;;4.20;;
54679;SDS011;40578;53.178;5.846;2022-12-05T14:47:53;9.23;;;4.03;;
54679;SDS011;40578;53.178;5.846;2022-12-05T14:50:23;12.05;;;5.15;;
54679;SDS011;40578;53.178;5.846;2022-12-05T14:55:43;11.38;;;5.07;;
54679;SDS011;40578;53.178;5.846;2022-12-05T14:58:17;13.05;;;5.10;;
54679;SDS011;40578;53.178;5.846;2022-12-05T15:00:57;9.70;;;4.95;;
54679;SDS011;40578;53.178;5.846;2022-12-05T15:03:30;9.23;;;4.63;;
54679;SDS011;40578;53.178;5.846;2022-12-05T15:06:00;11.52;;;5.43;;
54679;SDS011;40578;53.178;5.846;2022-12-05T15:08:31;11.23;;;5.97;;
54679;SDS011;40578;53.178;5.846;2022-12-05T15:11:03;12.77;;;5.68;;
54679;SDS011;40578;53.178;5.846;2022-12-05T15:13:29;15.70;;;4.77;;
54679;SDS011;40578;53.178;5.846;2022-12-05T15:16:12;11.98;;;5.55;;
54679;SDS011;40578;53.178;5.846;2022-12-05T15:18:43;13.48;;;5.78;;
54679;SDS011;40578;53.178;5.846;2022-12-05T15:21:21;15.57;;;5.88;;
54679;SDS011;40578;53.178;5.846;2022-12-05T15:24:00;12.30;;;6.03;;
54679;SDS011;40578;53.178;5.846;2022-12-05T15:26:40;12.88;;;5.63;;
54679;SDS011;40578;53.178;5.846;2022-12-05T15:29:16;11.65;;;5.38;;
54679;SDS011;40578;53.178;5.846;2022-12-05T15:31:48;13.50;;;5.53;;
54679;SDS011;40578;53.178;5.846;2022-12-05T15:40:10;13.90;;;5.53;;
54679;SDS011;40578;53.178;5.846;2022-12-05T15:46:05;14.90;;;6.07;;
54679;SDS011;40578;53.178;5.846;2022-12-05T15:48:44;12.80;;;6.05;;
54679;SDS011;40578;53.178;5.846;2022-12-05T15:51:10;12.30;;;6.70;;
54679;SDS011;40578;53.178;5.846;2022-12-05T15:53:46;16.10;;;6.00;;
54679;SDS011;40578;53.178;5.846;2022-12-05T15:56:32;13.40;;;6.55;;
54679;SDS011;40578;53.178;5.846;2022-12-05T15:59:05;13.18;;;6.40;;
54679;SDS011;40578;53.178;5.846;2022-12-05T16:01:47;16.92;;;6.65;;
54679;SDS011;40578;53.178;5.846;2022-12-05T16:06:50;16.13;;;6.40;;
54679;SDS011;40578;53.178;5.846;2022-12-05T16:09:20;12.93;;;7.05;;
54679;SDS011;40578;53.178;5.846;2022-12-05T16:11:51;12.25;;;6.28;;
54679;SDS011;40578;53.178;5.846;2022-12-05T16:14:22;17.77;;;7.00;;
54679;SDS011;40578;53.178;5.846;2022-12-05T16:16:49;15.35;;;7.45;;
54679;SDS011;40578;53.178;5.846;2022-12-05T16:19:20;14.88;;;7.90;;
54679;SDS011;40578;53.178;5.846;2022-12-05T16:21:58;16.15;;;8.30;;
54679;SDS011;40578;53.178;5.846;2022-12-05T16:24:41;17.02;;;7.57;;
54679;SDS011;40578;53.178;5.846;2022-12-05T16:27:20;17.73;;;7.25;;
54679;SDS011;40578;53.178;5.846;2022-12-05T16:32:41;14.95;;;8.00;;
54679;SDS011;40578;53.178;5.846;2022-12-05T16:38:20;18.00;;;8.10;;
54679;SDS011;40578;53.178;5.846;2022-12-05T16:43:18;15.33;;;7.70;;
54679;SDS011;40578;53.178;5.846;2022-12-05T16:48:41;18.88;;;7.50;;
54679;SDS011;40578;53.178;5.846;2022-12-05T16:51:18;17.60;;;7.75;;
54679;SDS011;40578;53.178;5.846;2022-12-05T16:53:49;13.77;;;7.30;;
54679;SDS011;40578;53.178;5.846;2022-12-05T16:56:24;14.18;;;7.03;;
54679;SDS011;40578;53.178;5.846;2022-12-05T16:58:52;17.17;;;7.40;;
54679;SDS011;40578;53.178;5.846;2022-12-05T17:01:19;15.18;;;7.78;;
54679;SDS011;40578;53.178;5.846;2022-12-05T17:03:46;14.82;;;7.65;;
54679;SDS011;40578;53.178;5.846;2022-12-05T17:06:12;16.17;;;8.00;;
54679;SDS011;40578;53.178;5.846;2022-12-05T17:11:04;20.77;;;9.20;;
54679;SDS011;40578;53.178;5.846;2022-12-05T17:13:31;14.48;;;7.43;;
54679;SDS011;40578;53.178;5.846;2022-12-05T17:15:57;14.17;;;8.00;;
54679;SDS011;40578;53.178;5.846;2022-12-05T17:18:23;23.63;;;9.83;;
54679;SDS011;40578;53.178;5.846;2022-12-05T17:20:49;18.37;;;8.83;;
54679;SDS011;40578;53.178;5.846;2022-12-05T17:23:17;15.25;;;8.52;;
54679;SDS011;40578;53.178;5.846;2022-12-05T17:25:45;16.55;;;8.15;;
54679;SDS011;40578;53.178;5.846;2022-12-05T17:28:14;18.65;;;9.27;;
54679;SDS011;40578;53.178;5.846;2022-12-05T17:30:40;14.60;;;7.03;;
54679;SDS011;40578;53.178;5.846;2022-12-05T17:33:08;16.00;;;8.67;;
54679;SDS011;40578;53.178;5.846;2022-12-05T17:35:35;14.43;;;7.50;;
54679;SDS011;40578;53.178;5.846;2022-12-05T17:38:04;16.50;;;8.50;;
54679;SDS011;40578;53.178;5.846;2022-12-05T17:40:31;17.25;;;8.45;;
54679;SDS011;40578;53.178;5.846;2022-12-05T17:42:57;18.33;;;8.45;;
54679;SDS011;40578;53.178;5.846;2022-12-05T17:45:23;12.93;;;7.18;;
54679;SDS011;40578;53.178;5.846;2022-12-05T17:47:50;18.38;;;7.85;;
54679;SDS011;40578;53.178;5.846;2022-12-05T17:52:44;15.55;;;8.40;;
54679;SDS011;40578;53.178;5.846;2022-12-05T17:55:17;17.98;;;8.82;;
54679;SDS011;40578;53.178;5.846;2022-12-05T17:57:45;17.38;;;7.40;;
54679;SDS011;40578;53.178;5.846;2022-12-05T18:00:12;14.80;;;7.40;;
54679;SDS011;40578;53.178;5.846;2022-12-05T18:02:40;14.13;;;7.15;;
54679;SDS011;40578;53.178;5.846;2022-12-05T18:05:06;21.08;;;7.03;;
54679;SDS011;40578;53.178;5.846;2022-12-05T18:07:34;19.00;;;9.23;;
54679;SDS011;40578;53.178;5.846;2022-12-05T18:09:59;15.68;;;6.65;;
54679;SDS011;40578;53.178;5.846;2022-12-05T18:12:25;14.10;;;6.07;;
54679;SDS011;40578;53.178;5.846;2022-12-05T18:14:51;11.55;;;5.97;;
54679;SDS011;40578;53.178;5.846;2022-12-05T18:17:17;17.97;;;7.43;;
54679;SDS011;40578;53.178;5.846;2022-12-05T18:19:42;16.87;;;6.40;;
54679;SDS011;40578;53.178;5.846;2022-12-05T18:22:08;13.83;;;6.67;;
54679;SDS011;40578;53.178;5.846;2022-12-05T18:24:33;18.23;;;8.43;;
54679;SDS011;40578;53.178;5.846;2022-12-05T18:26:59;21.30;;;7.40;;